Algoa, Arkansas
Current Conditions -  °F | °C
As of 6:56 AM on Saturday 20 Dec 2014 (Local Time) from KM19 Reporting Station
Overcast Overcast  
Wind Chill: 33°   Ceiling: 3400
Heat Index: 38°   Visibility: 7mi
Dew Point: 36°   Wind: 6mph
Humidity: 93%   Direction: 30°NNE
Pressure: 30.28"   Gusts: NA
Location:  35.5678°N, 91.2073°W
Report Text: KM19 201256Z AUTO 03005KT 7SM OVC034 03/02 A3028 RMK AO2 T00330022 SLP256
Loading
Personal Weather Stations






























Interactive Weather Map New forecast layout! Learn more

10-Day Weather Forecast

Advertisements
Track Severe Weather on mobile